Time;durP1;ratioP1;P1;durP2;ratioP2;P2;SDS_P1;SDS_P2;PMS_P1;PMS_P2;Temp;Humidity;BMP_temperature;BMP_pressure;BME280_temperature;BME280_humidity;BME280_pressure;Samples;Min_cycle;Max_cycle;Signal;HPM_P1;HPM_P2
2023/07/05 00:02:26;;;;;;;1999.90;999.90;;;16.10;99.90;;;;;;4900901;29;20574;-78
2023/07/05 00:04:52;;;;;;;1999.90;999.90;;;16.10;99.90;;;;;;4916557;29;20047;-78
2023/07/05 00:07:18;;;;;;;1999.90;999.90;;;16.10;99.90;;;;;;4916783;29;20195;-78
2023/07/05 00:09:43;;;;;;;1999.90;999.90;;;16.10;99.90;;;;;;4916293;29;20059;-77
2023/07/05 00:12:09;;;;;;;1999.90;999.90;;;16.10;99.90;;;;;;4917493;29;20051;-77
2023/07/05 00:14:35;;;;;;;1999.90;999.90;;;16.10;99.90;;;;;;4916206;29;20051;-77
2023/07/05 00:17:00;;;;;;;1999.90;999.90;;;16.10;99.90;;;;;;4916257;29;20063;-77
2023/07/05 00:19:26;;;;;;;1999.90;999.90;;;16.20;99.90;;;;;;4916990;29;20088;-77
2023/07/05 00:21:52;;;;;;;1999.90;999.90;;;16.10;99.90;;;;;;4900679;29;20130;-77
2023/07/05 00:24:17;;;;;;;1999.90;999.90;;;16.10;99.90;;;;;;4916397;29;20450;-78
2023/07/05 00:26:43;;;;;;;1999.90;999.90;;;16.10;99.90;;;;;;4916917;29;20040;-77
2023/07/05 00:29:09;;;;;;;1999.90;999.90;;;16.10;99.90;;;;;;4904481;29;20421;-76
2023/07/05 00:31:35;;;;;;;1999.90;999.90;;;16.10;99.90;;;;;;4905393;29;20378;-77
2023/07/05 00:34:00;;;;;;;1999.90;999.90;;;16.10;99.90;;;;;;4920441;29;20044;-77
2023/07/05 00:36:26;;;;;;;1999.90;999.90;;;16.10;99.90;;;;;;4920828;29;20466;-77
2023/07/05 00:38:52;;;;;;;1999.90;999.90;;;16.10;99.90;;;;;;4919964;29;20051;-75
2023/07/05 00:41:18;;;;;;;1999.90;999.90;;;16.10;99.90;;;;;;4919896;29;20549;-75
2023/07/05 00:43:53;;;;;;;1999.90;999.90;;;16.10;99.90;;;;;;4920833;29;20169;-74
2023/07/05 00:46:26;;;;;;;1999.90;999.90;;;16.10;99.90;;;;;;4921617;29;20441;-74
2023/07/05 00:49:04;;;;;;;1999.90;999.90;;;16.10;99.90;;;;;;4920917;29;20056;-74
2023/07/05 00:51:47;;;;;;;1999.90;999.90;;;16.10;99.90;;;;;;4920956;29;20040;-73
2023/07/05 00:54:16;;;;;;;1999.90;999.90;;;16.10;99.90;;;;;;4920467;29;20512;-73
2023/07/05 00:56:50;;;;;;;1999.90;999.90;;;16.10;99.90;;;;;;4904421;29;20090;-74
2023/07/05 00:59:19;;;;;;;1999.90;999.90;;;16.10;99.90;;;;;;4920801;29;20507;-74
2023/07/05 01:01:45;;;;;;;1999.90;999.90;;;16.00;99.90;;;;;;4920535;29;20064;-74
2023/07/05 01:04:11;;;;;;;1999.90;999.90;;;16.00;99.90;;;;;;4920737;29;20083;-73
2023/07/05 01:06:39;;;;;;;1999.90;999.90;;;16.00;99.90;;;;;;4920698;29;20127;-73
2023/07/05 01:09:06;;;;;;;1999.90;999.90;;;16.00;99.90;;;;;;4921367;29;20044;-75
2023/07/05 01:11:40;;;;;;;1999.90;999.90;;;16.00;99.90;;;;;;4919627;29;20060;-74
2023/07/05 01:14:28;;;;;;;1999.90;999.90;;;16.00;99.90;;;;;;4920757;29;20047;-74
2023/07/05 01:17:12;;;;;;;1999.90;999.90;;;16.00;99.90;;;;;;4920364;29;20056;-74
2023/07/05 01:19:57;;;;;;;1999.90;999.90;;;16.00;99.90;;;;;;4919584;29;20052;-74
2023/07/05 01:22:53;;;;;;;1999.90;999.90;;;16.00;99.90;;;;;;4919689;29;20100;-74
2023/07/05 01:25:55;;;;;;;1999.90;999.90;;;15.90;99.90;;;;;;4903418;29;20084;-74
2023/07/05 01:28:26;;;;;;;1999.90;999.90;;;15.90;99.90;;;;;;4916509;29;20080;-74
2023/07/05 01:31:19;;;;;;;1999.90;999.90;;;15.90;99.90;;;;;;4920262;29;20068;-74
2023/07/05 01:34:08;;;;;;;1999.90;999.90;;;15.90;99.90;;;;;;4920722;29;20044;-75
2023/07/05 01:36:35;;;;;;;1999.90;999.90;;;15.90;99.90;;;;;;4920255;29;20071;-74
2023/07/05 01:39:01;;;;;;;1999.90;999.90;;;15.90;99.90;;;;;;4919243;29;20609;-75
2023/07/05 01:41:26;;;;;;;1999.90;999.90;;;15.90;99.90;;;;;;4920785;29;20090;-74
2023/07/05 01:43:52;;;;;;;1999.90;999.90;;;15.90;99.90;;;;;;4920001;29;20566;-75
2023/07/05 01:46:34;;;;;;;1999.90;999.90;;;15.90;99.90;;;;;;4919000;29;20524;-74
2023/07/05 01:49:08;;;;;;;1999.90;999.90;;;15.90;99.90;;;;;;4919698;29;20048;-75
2023/07/05 01:51:56;;;;;;;1999.90;999.90;;;15.90;99.90;;;;;;4920373;29;20084;-74
2023/07/05 01:54:30;;;;;;;1999.90;999.90;;;15.90;99.90;;;;;;4919152;29;20044;-74
2023/07/05 01:57:06;;;;;;;1999.90;999.90;;;15.90;99.90;;;;;;4920057;29;20143;-75
2023/07/05 01:59:41;;;;;;;1999.90;999.90;;;15.90;99.90;;;;;;4919750;29;20048;-74
2023/07/05 02:02:07;;;;;;;1999.90;999.90;;;15.90;99.90;;;;;;4919091;29;20059;-75
2023/07/05 02:04:35;;;;;;;1999.90;999.90;;;15.90;99.90;;;;;;4919621;29;20044;-75
2023/07/05 02:07:04;;;;;;;1999.90;999.90;;;15.80;99.90;;;;;;4918636;29;20066;-74
2023/07/05 02:09:30;;;;;;;1999.90;999.90;;;15.90;99.90;;;;;;4919356;29;20106;-74
2023/07/05 02:11:56;;;;;;;1999.90;999.90;;;15.80;99.90;;;;;;4919431;29;20517;-75
2023/07/05 02:14:23;;;;;;;1999.90;999.90;;;15.80;99.90;;;;;;4918769;29;20040;-75
2023/07/05 02:16:48;;;;;;;1999.90;999.90;;;15.80;99.90;;;;;;4919389;29;20051;-74
2023/07/05 02:19:14;;;;;;;1999.90;999.90;;;15.80;99.90;;;;;;4919120;29;20426;-76
2023/07/05 02:21:40;;;;;;;1999.90;999.90;;;15.70;99.90;;;;;;4919306;29;20125;-76
2023/07/05 02:24:05;;;;;;;1999.90;999.90;;;15.70;99.90;;;;;;4918348;29;20134;-76
2023/07/05 02:26:33;;;;;;;1999.90;999.90;;;15.70;99.90;;;;;;4919800;29;20055;-77
2023/07/05 02:29:00;;;;;;;1999.90;999.90;;;15.70;99.90;;;;;;4887146;29;20048;-77
2023/07/05 02:31:25;;;;;;;1999.90;999.90;;;15.70;99.90;;;;;;4918014;29;20115;-77
2023/07/05 02:33:51;;;;;;;1999.90;999.90;;;15.60;99.90;;;;;;4902228;29;20056;-75
2023/07/05 02:36:17;;;;;;;1999.90;999.90;;;15.60;99.90;;;;;;4917790;29;20433;-77
2023/07/05 02:38:43;;;;;;;1999.90;999.90;;;15.50;99.90;;;;;;4902480;29;20072;-77
2023/07/05 02:41:09;;;;;;;1999.90;999.90;;;15.50;99.90;;;;;;4918750;29;20056;-78
2023/07/05 02:43:35;;;;;;;1999.90;999.90;;;15.50;99.90;;;;;;4918895;29;20048;-78
2023/07/05 02:46:01;;;;;;;1999.90;999.90;;;15.50;99.90;;;;;;4919458;29;20143;-77
2023/07/05 02:48:27;;;;;;;1999.90;999.90;;;15.40;99.90;;;;;;4917914;29;20052;-77
2023/07/05 02:50:53;;;;;;;1999.90;999.90;;;15.40;99.90;;;;;;4917756;29;20542;-77
2023/07/05 02:53:19;;;;;;;1999.90;999.90;;;15.40;99.90;;;;;;4919214;29;20048;-77
2023/07/05 02:55:44;;;;;;;1999.90;999.90;;;15.30;99.90;;;;;;4886800;29;20060;-78
2023/07/05 02:58:10;;;;;;;1999.90;999.90;;;15.30;99.90;;;;;;4918299;29;20409;-79
2023/07/05 03:00:36;;;;;;;1999.90;999.90;;;15.30;99.90;;;;;;4901816;29;20477;-78
2023/07/05 03:03:02;;;;;;;1999.90;999.90;;;15.30;99.90;;;;;;4917620;29;20052;-79
2023/07/05 03:05:28;;;;;;;1999.90;999.90;;;15.30;99.90;;;;;;4917573;29;20058;-76
2023/07/05 03:07:54;;;;;;;1999.90;999.90;;;15.30;99.90;;;;;;4886247;29;20054;-77
2023/07/05 03:10:20;;;;;;;1999.90;999.90;;;15.30;99.90;;;;;;4901772;29;20044;-76
2023/07/05 03:12:45;;;;;;;1999.90;999.90;;;15.30;99.90;;;;;;4917341;29;20068;-77
2023/07/05 03:15:11;;;;;;;1999.90;999.90;;;15.30;99.90;;;;;;4918142;29;20048;-77
2023/07/05 03:17:38;;;;;;;1999.90;999.90;;;15.30;99.90;;;;;;4917836;29;20477;-78
2023/07/05 03:20:04;;;;;;;1999.90;999.90;;;15.20;99.90;;;;;;4901455;29;20067;-77
2023/07/05 03:22:29;;;;;;;1999.90;999.90;;;15.20;99.90;;;;;;4901325;29;20059;-77
2023/07/05 03:24:55;;;;;;;1999.90;999.90;;;15.20;99.90;;;;;;4916948;29;20048;-77
2023/07/05 03:27:21;;;;;;;1999.90;999.90;;;15.20;99.90;;;;;;4918107;29;20052;-78
2023/07/05 03:29:47;;;;;;;1999.90;999.90;;;15.20;99.90;;;;;;4916873;29;20055;-80
2023/07/05 03:32:14;;;;;;;1999.90;999.90;;;15.20;99.90;;;;;;4917061;29;20080;-79
2023/07/05 03:34:40;;;;;;;1999.90;999.90;;;15.20;99.90;;;;;;4900722;29;20481;-80
2023/07/05 03:37:05;;;;;;;1999.90;999.90;;;15.20;99.90;;;;;;4900874;29;20048;-79
2023/07/05 03:39:31;;;;;;;1999.90;999.90;;;15.20;99.90;;;;;;4917681;29;20052;-77
2023/07/05 03:41:57;;;;;;;1999.90;999.90;;;15.20;99.90;;;;;;4916926;29;20584;-80
2023/07/05 03:44:24;;;;;;;1999.90;999.90;;;15.20;99.90;;;;;;4916629;29;20040;-80
2023/07/05 03:46:50;;;;;;;1999.90;999.90;;;15.20;99.90;;;;;;4916676;29;20151;-80
2023/07/05 03:49:17;;;;;;;1999.90;999.90;;;15.10;99.90;;;;;;4916576;29;20135;-79
2023/07/05 03:51:43;;;;;;;1999.90;999.90;;;15.10;99.90;;;;;;4917681;29;20044;-80
2023/07/05 03:54:09;;;;;;;1999.90;999.90;;;15.20;99.90;;;;;;4916437;29;20044;-81
2023/07/05 03:56:35;;;;;;;1999.90;999.90;;;15.10;99.90;;;;;;4917702;29;20050;-80
2023/07/05 03:59:01;;;;;;;1999.90;999.90;;;15.10;99.90;;;;;;4916914;29;20044;-80
2023/07/05 04:01:29;;;;;;;1999.90;999.90;;;15.10;99.90;;;;;;4916605;29;20043;-80
2023/07/05 04:03:57;;;;;;;1999.90;999.90;;;15.10;99.90;;;;;;4916451;29;20064;-81
2023/07/05 04:06:25;;;;;;;1999.90;999.90;;;15.10;99.90;;;;;;4916168;29;20135;-80
2023/07/05 04:08:51;;;;;;;1999.90;999.90;;;15.10;99.90;;;;;;4917489;29;20048;-80
2023/07/05 04:11:17;;;;;;;1999.90;999.90;;;15.10;99.90;;;;;;4916289;29;20054;-79
2023/07/05 04:13:44;;;;;;;1999.90;999.90;;;15.10;99.90;;;;;;4900726;29;20048;-81
2023/07/05 04:16:16;;;;;;;1999.90;999.90;;;15.10;99.90;;;;;;4915924;29;20056;-80
2023/07/05 04:18:43;;;;;;;1999.90;999.90;;;15.20;99.90;;;;;;4900343;29;20064;-81
2023/07/05 04:21:10;;;;;;;1999.90;999.90;;;15.20;99.90;;;;;;4916354;29;20056;-81
2023/07/05 04:23:36;;;;;;;1999.90;999.90;;;15.20;99.90;;;;;;4917140;29;20056;-80
2023/07/05 04:26:07;;;;;;;1999.90;999.90;;;15.30;99.90;;;;;;4917327;29;20405;-80
2023/07/05 04:28:35;;;;;;;1999.90;999.90;;;15.30;99.90;;;;;;4916358;29;20555;-80
2023/07/05 04:31:01;;;;;;;1999.90;999.90;;;15.30;99.90;;;;;;4916619;29;20054;-82
2023/07/05 04:33:27;;;;;;;1999.90;999.90;;;15.30;99.90;;;;;;4917218;29;20056;-82
2023/07/05 04:36:00;;;;;;;1999.90;999.90;;;15.30;99.90;;;;;;4916133;29;20053;-82
2023/07/05 04:38:26;;;;;;;1999.90;999.90;;;15.40;99.90;;;;;;4917064;29;20055;-82
2023/07/05 04:40:53;;;;;;;1999.90;999.90;;;15.40;99.90;;;;;;4916910;29;20048;-85
2023/07/05 04:43:19;;;;;;;1999.90;999.90;;;15.40;99.90;;;;;;4916906;29;20134;-81
2023/07/05 04:45:52;;;;;;;1999.90;999.90;;;15.50;99.90;;;;;;4917692;29;20126;-82
2023/07/05 04:48:18;;;;;;;1999.90;999.90;;;15.50;99.90;;;;;;4916117;29;20040;-82
2023/07/05 04:50:44;;;;;;;1999.90;999.90;;;15.50;99.90;;;;;;4917066;29;20052;-83
2023/07/05 04:53:10;;;;;;;1999.90;999.90;;;15.50;99.90;;;;;;4916821;29;20407;-83
2023/07/05 04:55:36;;;;;;;1999.90;999.90;;;15.60;99.90;;;;;;4915874;29;20131;-82
2023/07/05 04:58:05;;;;;;;1999.90;999.90;;;15.60;99.90;;;;;;4915942;29;20095;-83
2023/07/05 05:00:31;;;;;;;1999.90;999.90;;;15.60;99.90;;;;;;4917119;29;20044;-85
2023/07/05 05:02:56;;;;;;;1999.90;999.90;;;15.60;99.90;;;;;;4917136;29;20557;-85
2023/07/05 05:05:22;;;;;;;1999.90;999.90;;;15.60;99.90;;;;;;4916973;29;20130;-82
2023/07/05 05:07:48;;;;;;;1999.90;999.90;;;15.70;99.90;;;;;;4916364;29;20047;-83
2023/07/05 05:10:13;;;;;;;1999.90;999.90;;;15.70;99.90;;;;;;4917203;29;20400;-83
2023/07/05 05:12:39;;;;;;;1999.90;999.90;;;15.70;99.90;;;;;;4917627;29;20490;-83
2023/07/05 05:15:05;;;;;;;1999.90;999.90;;;15.70;99.90;;;;;;4902384;29;20048;-84
2023/07/05 05:17:31;;;;;;;1999.90;999.90;;;15.70;99.90;;;;;;4919366;29;20047;-81
2023/07/05 05:19:57;;;;;;;1999.90;999.90;;;15.70;99.90;;;;;;4919350;29;20145;-84
2023/07/05 05:22:23;;;;;;;1999.90;999.90;;;15.70;99.90;;;;;;4888338;29;20059;-81
2023/07/05 05:24:48;;;;;;;1999.90;999.90;;;15.70;99.90;;;;;;4903651;29;20040;-79
2023/07/05 05:27:14;;;;;;;1999.90;999.90;;;15.70;99.90;;;;;;4888789;29;20178;-84
2023/07/05 05:29:40;;;;;;;1999.90;999.90;;;15.60;99.90;;;;;;4919209;29;20055;-83
2023/07/05 05:32:06;;;;;;;1999.90;999.90;;;15.60;99.90;;;;;;4887624;29;20052;-78
2023/07/05 05:34:32;;;;;;;1999.90;999.90;;;15.40;99.90;;;;;;4903258;29;20040;-83
2023/07/05 05:36:58;;;;;;;1999.90;999.90;;;15.30;99.90;;;;;;4903351;29;20059;-85
2023/07/05 05:39:24;;;;;;;1999.90;999.90;;;15.30;99.90;;;;;;4873399;29;20058;-81
2023/07/05 05:41:50;;;;;;;1999.90;999.90;;;15.10;99.90;;;;;;4904206;29;20138;-80
2023/07/05 05:44:16;;;;;;;1999.90;999.90;;;15.10;99.90;;;;;;4919300;29;20052;-80
2023/07/05 05:46:41;;;;;;;1999.90;999.90;;;15.00;99.90;;;;;;4903196;29;20520;-79
2023/07/05 05:49:07;;;;;;;1999.90;999.90;;;14.90;99.90;;;;;;4918658;29;20083;-75
2023/07/05 05:51:33;;;;;;;1999.90;999.90;;;14.90;99.90;;;;;;4903156;29;20059;-76
2023/07/05 05:53:58;;;;;;;1999.90;999.90;;;14.90;99.90;;;;;;4902906;29;20036;-82
2023/07/05 05:56:24;;;;;;;1999.90;999.90;;;14.80;99.90;;;;;;4903193;29;20052;-81
2023/07/05 05:58:50;;;;;;;1999.90;999.90;;;14.80;99.90;;;;;;4902930;29;20412;-81
2023/07/05 06:01:15;;;;;;;1999.90;999.90;;;14.80;99.90;;;;;;4918969;29;20052;-82
2023/07/05 06:03:41;;;;;;;1999.90;999.90;;;14.90;99.90;;;;;;4918888;29;20092;-82
2023/07/05 06:06:07;;;;;;;1999.90;999.90;;;14.80;99.90;;;;;;4888168;29;20055;-83
2023/07/05 06:08:33;;;;;;;1999.90;999.90;;;14.80;99.90;;;;;;4918854;29;20050;-82
2023/07/05 06:11:02;;;;;;;1999.90;999.90;;;14.80;99.90;;;;;;4902637;29;20043;-81
2023/07/05 06:13:28;;;;;;;1999.90;999.90;;;14.90;99.90;;;;;;4918275;29;20170;-80
2023/07/05 06:15:59;;;;;;;1999.90;999.90;;;14.90;99.90;;;;;;4918577;29;20052;-80
2023/07/05 06:18:26;;;;;;;1999.90;999.90;;;14.90;99.90;;;;;;4918647;29;20183;-81
2023/07/05 06:20:53;;;;;;;1999.90;999.90;;;14.90;99.90;;;;;;4902875;29;20181;-78
2023/07/05 06:23:19;;;;;;;1999.90;999.90;;;15.00;99.90;;;;;;4902680;29;20094;-79
2023/07/05 06:25:49;;;;;;;1999.90;999.90;;;15.00;99.90;;;;;;4902202;29;20485;-80
2023/07/05 06:28:16;;;;;;;1999.90;999.90;;;15.20;99.90;;;;;;4919851;29;20052;-79
2023/07/05 06:30:43;;;;;;;1999.90;999.90;;;15.10;99.90;;;;;;4903318;29;20135;-77
2023/07/05 06:33:09;;;;;;;1999.90;999.90;;;15.10;99.90;;;;;;4918063;29;20127;-77
2023/07/05 06:35:34;;;;;;;1999.90;999.90;;;15.20;99.90;;;;;;4917665;29;20548;-78
2023/07/05 06:38:01;;;;;;;1999.90;999.90;;;15.20;99.90;;;;;;4919589;29;20088;-77
2023/07/05 06:40:27;;;;;;;1999.90;999.90;;;15.20;99.90;;;;;;4918012;29;20063;-79
2023/07/05 06:42:53;;;;;;;1999.90;999.90;;;15.30;99.90;;;;;;4902286;29;20048;-79
2023/07/05 06:45:18;;;;;;;1999.90;999.90;;;15.30;99.90;;;;;;4918869;29;20059;-78
2023/07/05 06:47:45;;;;;;;1999.90;999.90;;;15.30;99.90;;;;;;4918653;29;20141;-77
2023/07/05 06:50:12;;;;;;;1999.90;999.90;;;15.30;99.90;;;;;;4917772;29;20059;-75
2023/07/05 06:52:39;;;;;;;1999.90;999.90;;;15.30;99.90;;;;;;4901809;29;20489;-74
2023/07/05 06:55:06;;;;;;;1999.90;999.90;;;15.30;99.90;;;;;;4918507;29;20134;-79
2023/07/05 06:57:32;;;;;;;1999.90;999.90;;;15.30;99.90;;;;;;4918594;29;20139;-79
2023/07/05 06:59:58;;;;;;;1999.90;999.90;;;15.40;99.90;;;;;;4917686;29;20127;-79
2023/07/05 07:02:23;;;;;;;1999.90;999.90;;;15.50;99.90;;;;;;4917888;29;20086;-75
2023/07/05 07:04:49;;;;;;;1999.90;999.90;;;15.50;99.90;;;;;;4901886;29;20044;-80
2023/07/05 07:07:15;;;;;;;1999.90;999.90;;;15.60;99.90;;;;;;4887077;29;20476;-79
2023/07/05 07:09:43;;;;;;;1999.90;999.90;;;15.60;99.90;;;;;;4901933;29;20056;-79
2023/07/05 07:12:09;;;;;;;1999.90;999.90;;;15.70;99.90;;;;;;4917870;29;20047;-81
2023/07/05 07:14:35;;;;;;;1999.90;999.90;;;15.70;99.90;;;;;;4918472;29;20052;-80
2023/07/05 07:17:01;;;;;;;1999.90;999.90;;;15.80;99.90;;;;;;4918529;29;20110;-80
2023/07/05 07:19:27;;;;;;;1999.90;999.90;;;15.80;99.90;;;;;;4918369;29;20047;-77
2023/07/05 07:21:53;;;;;;;1999.90;999.90;;;15.80;99.90;;;;;;4886123;29;20044;-79
2023/07/05 07:24:19;;;;;;;1999.90;999.90;;;15.80;99.90;;;;;;4918428;29;20460;-79
2023/07/05 07:26:44;;;;;;;1999.90;999.90;;;15.90;99.90;;;;;;4918331;29;20130;-81
2023/07/05 07:29:11;;;;;;;1999.90;999.90;;;15.90;99.90;;;;;;4901666;29;20130;-79
2023/07/05 07:31:37;;;;;;;1999.90;999.90;;;16.00;99.90;;;;;;4901597;29;20504;-75
2023/07/05 07:34:05;;;;;;;1999.90;999.90;;;16.00;99.90;;;;;;4917098;29;20063;-79
2023/07/05 07:36:33;;;;;;;1999.90;999.90;;;16.10;99.90;;;;;;4905179;29;20473;-78
2023/07/05 07:38:59;;;;;;;1999.90;999.90;;;16.20;99.90;;;;;;4917524;29;20052;-75
2023/07/05 07:41:33;;;;;;;1999.90;999.90;;;16.20;99.90;;;;;;4901637;29;20107;-77
2023/07/05 07:44:01;;;;;;;1999.90;999.90;;;16.20;99.90;;;;;;4917901;29;20044;-78
2023/07/05 07:46:29;;;;;;;1999.90;999.90;;;16.20;99.90;;;;;;4918012;29;20457;-82
2023/07/05 07:48:57;;;;;;;1999.90;999.90;;;16.30;99.90;;;;;;4917302;29;20481;-81
2023/07/05 07:51:25;;;;;;;1999.90;999.90;;;16.30;99.90;;;;;;4901090;29;20485;-86
2023/07/05 07:53:51;;;;;;;1999.90;999.90;;;16.20;99.90;;;;;;4917292;29;20524;-83
2023/07/05 07:56:20;;;;;;;1999.90;999.90;;;16.20;99.90;;;;;;4916693;29;20528;-82
2023/07/05 07:58:48;;;;;;;1999.90;999.90;;;16.20;99.90;;;;;;4900848;29;20107;-88
2023/07/05 08:01:22;;;;;;;1999.90;999.90;;;16.10;99.90;;;;;;4916882;29;20055;-88
2023/07/05 08:03:49;;;;;;;1999.90;999.90;;;16.00;99.90;;;;;;4901948;29;20051;-84
2023/07/05 08:06:15;;;;;;;1999.90;999.90;;;16.00;99.90;;;;;;4901028;29;20555;-77
2023/07/05 08:08:42;;;;;;;1999.90;999.90;;;15.80;99.90;;;;;;4900999;29;20432;-86
2023/07/05 08:11:09;;;;;;;1999.90;999.90;;;15.70;99.90;;;;;;4916751;29;20054;-83
2023/07/05 08:13:36;;;;;;;1999.90;999.90;;;15.70;99.90;;;;;;4900438;29;20056;-84
2023/07/05 08:16:03;;;;;;;1999.90;999.90;;;15.70;99.90;;;;;;4915965;29;20052;-84
2023/07/05 08:18:29;;;;;;;1999.90;999.90;;;15.60;99.90;;;;;;4900851;29;20152;-80
2023/07/05 08:20:56;;;;;;;1999.90;999.90;;;15.50;99.90;;;;;;4916374;29;20052;-84
2023/07/05 08:23:22;;;;;;;1999.90;999.90;;;15.30;99.90;;;;;;4916530;29;20063;-81
2023/07/05 08:25:54;;;;;;;1999.90;999.90;;;15.20;99.90;;;;;;4917463;29;20044;-80
2023/07/05 08:28:25;;;;;;;1999.90;999.90;;;15.00;99.90;;;;;;4916823;29;20052;-77
2023/07/05 08:30:55;;;;;;;1999.90;999.90;;;14.80;99.90;;;;;;4916868;29;20131;-82
2023/07/05 08:33:26;;;;;;;1999.90;999.90;;;14.70;99.90;;;;;;4900695;29;20044;-82
2023/07/05 08:36:07;;;;;;;1999.90;999.90;;;14.60;99.90;;;;;;4900308;29;20099;-79
2023/07/05 08:38:33;;;;;;;1999.90;999.90;;;14.50;99.90;;;;;;4916750;29;20103;-78
2023/07/05 08:41:27;;;;;;;1999.90;999.90;;;14.60;99.90;;;;;;4885313;29;20063;-82
2023/07/05 08:44:09;;;;;;;1999.90;999.90;;;14.50;99.90;;;;;;4901114;29;20052;-79
2023/07/05 08:46:38;;;;;;;1999.90;999.90;;;14.50;99.90;;;;;;4901627;29;20063;-79
2023/07/05 08:49:12;;;;;;;1999.90;999.90;;;14.40;99.90;;;;;;4919167;29;20051;-81
2023/07/05 08:51:40;;;;;;;1999.90;999.90;;;14.40;99.90;;;;;;4920634;29;20051;-78
2023/07/05 08:54:11;;;;;;;1999.90;999.90;;;14.30;99.90;;;;;;4920333;29;20577;-79
2023/07/05 08:56:48;;;;;;;1999.90;999.90;;;14.20;99.90;;;;;;4906199;29;20048;-80
2023/07/05 08:59:40;;;;;;;1999.90;999.90;;;14.10;99.90;;;;;;4920790;29;20112;-80
2023/07/05 09:02:09;;;;;;;1999.90;999.90;;;14.00;99.90;;;;;;4920188;29;20048;-77
2023/07/05 09:04:35;;;;;;;1999.90;999.90;;;14.00;99.90;;;;;;4921686;29;20100;-81
2023/07/05 09:07:56;;;;;;;1999.90;999.90;;;14.00;99.90;;;;;;4919818;29;20056;-79
2023/07/05 09:10:43;;;;;;;1999.90;999.90;;;14.00;99.90;;;;;;4869446;29;20137;-80
2023/07/05 09:13:20;;;;;;;1999.90;999.90;;;14.00;99.90;;;;;;4932753;29;20056;-78
2023/07/05 09:16:18;;;;;;;1999.90;999.90;;;13.90;99.90;;;;;;4921858;29;20433;-79
2023/07/05 09:19:23;;;;;;;1999.90;999.90;;;13.90;99.90;;;;;;4919971;29;20051;-79
2023/07/05 09:22:01;;;;;;;1999.90;999.90;;;13.90;99.90;;;;;;4919717;29;20055;-78
2023/07/05 09:24:39;;;;;;;1999.90;999.90;;;13.80;99.90;;;;;;4920714;29;20559;-80
2023/07/05 09:27:08;;;;;;;1999.90;999.90;;;13.80;99.90;;;;;;4920706;29;20076;-76
2023/07/05 09:29:47;;;;;;;1999.90;999.90;;;13.70;99.90;;;;;;4919490;29;20048;-80
2023/07/05 09:32:19;;;;;;;1999.90;999.90;;;13.70;99.90;;;;;;4904918;29;20378;-81
2023/07/05 09:34:59;;;;;;;1999.90;999.90;;;13.60;99.90;;;;;;4919843;29;20076;-81
2023/07/05 09:37:30;;;;;;;1999.90;999.90;;;13.60;99.90;;;;;;4902892;29;20536;-78
2023/07/05 09:40:08;;;;;;;1999.90;999.90;;;13.50;99.90;;;;;;4921093;29;20052;-82
2023/07/05 09:42:52;;;;;;;1999.90;999.90;;;13.50;99.90;;;;;;4919699;29;20099;-78
2023/07/05 09:45:19;;;;;;;1999.90;999.90;;;13.50;99.90;;;;;;4903592;29;20116;-84
2023/07/05 09:47:50;;;;;;;1999.90;999.90;;;13.50;99.90;;;;;;4919598;29;20055;-82
2023/07/05 09:50:21;;;;;;;1999.90;999.90;;;13.50;99.90;;;;;;4904249;29;20438;-87
2023/07/05 09:53:14;;;;;;;1999.90;999.90;;;13.50;99.90;;;;;;4919465;29;20044;-79
2023/07/05 09:56:04;;;;;;;1999.90;999.90;;;13.50;99.90;;;;;;4920033;29;20056;-81
2023/07/05 09:58:30;;;;;;;1999.90;999.90;;;13.50;99.90;;;;;;4919316;29;20052;-74
2023/07/05 10:01:02;;;;;;;1999.90;999.90;;;13.50;99.90;;;;;;4919264;29;20044;-72
2023/07/05 10:03:34;;;;;;;1999.90;999.90;;;13.50;99.90;;;;;;4920084;29;20050;-74
2023/07/05 10:06:07;;;;;;;1999.90;999.90;;;13.50;99.90;;;;;;4919428;29;20055;-73
2023/07/05 10:08:43;;;;;;;1999.90;999.90;;;13.60;99.90;;;;;;4919846;29;20048;-72
2023/07/05 10:11:27;;;;;;;1999.90;999.90;;;13.60;99.90;;;;;;4919004;29;20446;-72
2023/07/05 10:14:06;;;;;;;1999.90;999.90;;;13.60;99.90;;;;;;4919399;29;20115;-77
2023/07/05 10:16:57;;;;;;;1999.90;999.90;;;13.70;99.90;;;;;;4919784;29;20067;-75
2023/07/05 10:19:32;;;;;;;1999.90;999.90;;;13.70;99.90;;;;;;4918299;29;20080;-83
2023/07/05 10:22:01;;;;;;;1999.90;999.90;;;13.80;99.90;;;;;;4918788;29;20052;-77
2023/07/05 10:24:30;;;;;;;1999.90;999.90;;;13.90;99.90;;;;;;4918704;29;20171;-79
2023/07/05 10:27:23;;;;;;;1999.90;999.90;;;14.00;99.90;;;;;;4919653;29;20378;-73
2023/07/05 10:29:57;;;;;;;1999.90;999.90;;;14.10;99.90;;;;;;4919842;29;20103;-75
2023/07/05 10:32:23;;;;;;;1999.90;999.90;;;14.20;99.90;;;;;;4919374;29;20052;-73
2023/07/05 10:34:50;;;;;;;1999.90;999.90;;;14.30;99.90;;;;;;4902170;29;20420;-75
2023/07/05 10:37:37;;;;;;;1999.90;999.90;;;14.40;99.90;;;;;;4919743;29;20358;-78
2023/07/05 10:40:08;;;;;;;1999.90;999.90;;;14.50;99.90;;;;;;4918641;29;20087;-76
2023/07/05 10:42:39;;;;;;;1999.90;999.90;;;14.60;99.90;;;;;;4918538;29;20107;-71
2023/07/05 10:45:08;;;;;;;1999.90;999.90;;;14.60;99.90;;;;;;4919494;29;20473;-74
2023/07/05 10:47:36;;;;;;;1999.90;999.90;;;14.70;99.90;;;;;;4901653;29;20072;-74
2023/07/05 10:50:06;;;;;;;1999.90;999.90;;;14.80;99.90;;;;;;4918605;29;20052;-80
2023/07/05 10:52:48;;;;;;;1999.90;999.90;;;14.80;99.90;;;;;;4917980;29;20056;-82
2023/07/05 10:55:32;;;;;;;1999.90;999.90;;;14.90;99.90;;;;;;4918119;29;20058;-81
2023/07/05 10:58:19;;;;;;;1999.90;999.90;;;14.90;99.90;;;;;;4919157;29;20091;-78
2023/07/05 11:01:01;;;;;;;1999.90;999.90;;;15.00;99.90;;;;;;4918581;29;20052;-77
2023/07/05 11:03:45;;;;;;;1999.90;999.90;;;15.10;99.90;;;;;;4918455;29;20473;-77
2023/07/05 11:06:12;;;;;;;1999.90;999.90;;;15.20;99.90;;;;;;4918499;29;20056;-78
2023/07/05 11:08:41;;;;;;;1999.90;999.90;;;15.20;99.90;;;;;;4919087;29;20151;-72
2023/07/05 11:11:27;;;;;;;1999.90;999.90;;;15.30;99.90;;;;;;4917807;29;20103;-73
2023/07/05 11:13:54;;;;;;;1999.90;999.90;;;15.40;99.90;;;;;;4917776;29;20047;-68
2023/07/05 11:16:24;;;;;;;1999.90;999.90;;;15.40;99.90;;;;;;4917276;29;20107;-76
2023/07/05 11:18:56;;;;;;;1999.90;999.90;;;15.50;99.90;;;;;;4918060;29;20063;-76
2023/07/05 11:21:33;;;;;;;1999.90;999.90;;;15.50;99.90;;;;;;4902124;29;20460;-72
2023/07/05 11:23:58;;;;;;;1999.90;999.90;;;15.60;99.90;;;;;;4918498;29;20361;-80
2023/07/05 11:26:41;;;;;;;1999.90;999.90;;;15.70;99.90;;;;;;4916989;29;20055;-77
2023/07/05 11:29:28;;;;;;;1999.90;999.90;;;15.80;99.90;;;;;;4918041;29;20052;-74
2023/07/05 11:31:53;;;;;;;1999.90;999.90;;;15.90;99.90;;;;;;4917814;29;20063;-72
2023/07/05 11:34:22;;;;;;;1999.90;999.90;;;16.00;99.90;;;;;;4917730;29;20048;-76
2023/07/05 11:37:00;;;;;;;1999.90;999.90;;;16.00;99.90;;;;;;4918073;29;20619;-75
2023/07/05 11:39:33;;;;;;;1999.90;999.90;;;16.00;99.90;;;;;;4917274;29;20056;-78
2023/07/05 11:42:28;;;;;;;1999.90;999.90;;;16.10;99.90;;;;;;4917619;29;20055;-77
2023/07/05 11:45:03;;;;;;;1999.90;999.90;;;16.20;99.90;;;;;;4912577;29;20059;-76
2023/07/05 11:47:32;;;;;;;1999.90;999.90;;;16.20;99.90;;;;;;4916566;29;20485;-79
2023/07/05 11:50:09;;;;;;;1999.90;999.90;;;16.20;99.90;;;;;;4918000;29;20059;-78
2023/07/05 11:52:37;;;;;;;1999.90;999.90;;;16.20;99.90;;;;;;4916479;29;20059;-74
2023/07/05 11:55:08;;;;;;;1999.90;999.90;;;16.30;99.90;;;;;;4917395;29;20044;-77
2023/07/05 11:57:50;;;;;;;1999.90;999.90;;;16.30;99.90;;;;;;4916470;29;20100;-78
2023/07/05 12:00:20;;;;;;;1999.90;999.90;;;16.30;99.90;;;;;;4901435;29;20115;-78
2023/07/05 12:02:48;;;;;;;1999.90;999.90;;;16.40;99.90;;;;;;4917663;29;20094;-81
2023/07/05 12:05:19;;;;;;;1999.90;999.90;;;16.30;99.90;;;;;;4917578;29;20123;-78
2023/07/05 12:07:51;;;;;;;1999.90;999.90;;;16.20;99.90;;;;;;4917236;29;20047;-77
2023/07/05 12:10:26;;;;;;;1999.90;999.90;;;16.10;99.90;;;;;;4917804;29;20050;-78
2023/07/05 12:12:52;;;;;;;1999.90;999.90;;;15.90;99.90;;;;;;4915697;29;20052;-77
2023/07/05 12:15:19;;;;;;;1999.90;999.90;;;15.90;99.90;;;;;;4917441;29;20047;-75